createdAt,value
2019-04-10T00:01:21.537Z,101417.16
2019-04-10T00:03:50.381Z,101416.72
2019-04-10T00:06:18.755Z,101419.73
2019-04-10T00:08:47.013Z,101413.30
2019-04-10T00:11:15.286Z,101424.03
2019-04-10T00:13:44.871Z,101424.91
2019-04-10T00:16:13.925Z,101426.66
2019-04-10T00:18:42.265Z,101427.52
2019-04-10T00:21:11.283Z,101424.52
2019-04-10T00:23:41.280Z,101432.66
2019-04-10T00:26:09.968Z,101430.52
2019-04-10T00:28:39.243Z,101427.09
2019-04-10T00:31:07.594Z,101423.71
2019-04-10T00:33:36.710Z,101427.14
2019-04-10T00:36:05.045Z,101427.14
2019-04-10T00:38:33.660Z,101428.86
2019-04-10T00:41:02.046Z,101424.14
2019-04-10T00:43:30.821Z,101423.71
2019-04-10T00:45:59.906Z,101419.42
2019-04-10T00:48:28.171Z,101423.28
2019-04-10T00:50:57.099Z,101422.85
2019-04-10T00:53:25.406Z,101427.99
2019-04-10T00:55:54.340Z,101425.81
2019-04-10T00:58:22.692Z,101422.84
2019-04-10T01:00:51.868Z,101418.99
2019-04-10T01:03:38.171Z,101419.42
2019-04-10T01:06:06.477Z,101417.28
2019-04-10T01:08:34.909Z,101423.28
2019-04-10T01:11:03.437Z,101428.03
2019-04-10T01:13:32.694Z,101428.86
2019-04-10T01:16:00.959Z,101423.28
2019-04-10T01:18:29.235Z,101426.32
2019-04-10T01:20:57.744Z,101427.61
2019-04-10T01:23:26.025Z,101428.03
2019-04-10T01:25:54.764Z,101430.20
2019-04-10T01:28:23.028Z,101429.77
2019-04-10T01:30:51.275Z,101429.31
2019-04-10T01:33:20.518Z,101429.74
2019-04-10T01:35:48.892Z,101420.74
2019-04-10T01:38:17.595Z,101420.77
2019-04-10T01:40:46.083Z,101420.34
2019-04-10T01:43:18.238Z,101420.77
2019-04-10T01:45:44.333Z,101428.91
2019-04-10T01:48:12.617Z,101429.78
2019-04-10T01:50:40.885Z,101428.05
2019-04-10T01:53:09.214Z,101424.19
2019-04-10T01:55:37.425Z,101428.91
2019-04-10T01:58:10.647Z,101426.32
2019-04-10T02:00:40.649Z,101425.47
2019-04-10T02:03:09.806Z,101426.34
2019-04-10T02:05:38.769Z,101422.50
2019-04-10T02:08:10.341Z,101426.76
2019-04-10T02:10:37.013Z,101418.61
2019-04-10T02:13:05.393Z,101423.77
2019-04-10T02:15:34.273Z,101427.20
2019-04-10T02:18:03.272Z,101427.20
2019-04-10T02:20:31.513Z,101420.33
2019-04-10T02:22:59.785Z,101426.34
2019-04-10T02:25:28.445Z,101424.63
2019-04-10T02:27:56.699Z,101418.64
2019-04-10T02:30:26.192Z,101416.50
2019-04-10T02:32:55.151Z,101416.91
2019-04-10T02:35:24.597Z,101423.33
2019-04-10T02:37:55.584Z,101428.06
2019-04-10T02:40:23.614Z,101422.47
2019-04-10T02:42:52.327Z,101422.49
2019-04-10T02:45:21.940Z,101424.61
2019-04-10T02:47:50.936Z,101426.34
2019-04-10T02:50:20.668Z,101418.63
2019-04-10T02:52:50.919Z,101424.19
2019-04-10T02:55:18.972Z,101415.18
2019-04-10T02:57:47.332Z,101413.06
2019-04-10T03:00:15.666Z,101418.20
2019-04-10T03:02:45.211Z,101416.92
2019-04-10T03:05:14.318Z,101418.62
2019-04-10T03:07:44.303Z,101419.47
2019-04-10T03:10:24.699Z,101419.90
2019-04-10T03:12:44.271Z,101413.93
2019-04-10T03:15:12.909Z,101420.36
2019-04-10T03:17:42.063Z,101422.48
2019-04-10T03:20:10.429Z,101426.77
2019-04-10T03:22:38.872Z,101425.47
2019-04-10T03:25:07.388Z,101426.33
2019-04-10T03:27:36.561Z,101436.59
2019-04-10T03:30:07.578Z,101434.45
2019-04-10T03:32:50.408Z,101433.61
2019-04-10T03:35:24.855Z,101437.88
2019-04-10T03:37:53.073Z,101426.30
2019-04-10T03:40:21.674Z,101438.70
2019-04-10T03:42:49.995Z,101436.54
2019-04-10T03:45:18.250Z,101436.11
2019-04-10T03:47:47.391Z,101439.14
2019-04-10T03:50:16.336Z,101438.70
2019-04-10T03:52:45.327Z,101430.56
2019-04-10T03:55:13.694Z,101441.27
2019-04-10T03:57:42.829Z,101438.70
2019-04-10T04:00:12.126Z,101434.86
2019-04-10T04:02:40.462Z,101437.83
2019-04-10T04:05:08.799Z,101440.84
2019-04-10T04:07:37.071Z,101443.83
2019-04-10T04:10:06.889Z,101439.12
2019-04-10T04:12:35.176Z,101436.98
2019-04-10T04:15:03.853Z,101440.40
2019-04-10T04:17:32.543Z,101440.41
2019-04-10T04:20:00.856Z,101448.53
2019-04-10T04:22:29.127Z,101439.52
2019-04-10T04:24:58.165Z,101435.23
2019-04-10T04:27:27.108Z,101440.80
2019-04-10T04:29:55.406Z,101442.07
2019-04-10T04:32:23.838Z,101439.11
2019-04-10T04:34:52.215Z,101445.98
2019-04-10T04:37:20.834Z,101445.95
2019-04-10T04:39:49.142Z,101447.22
2019-04-10T04:42:17.433Z,101448.50
2019-04-10T04:44:45.711Z,101451.53
2019-04-10T04:47:15.775Z,101452.38
2019-04-10T04:49:44.463Z,101452.84
2019-04-10T04:52:14.136Z,101457.54
2019-04-10T04:54:43.318Z,101460.98
2019-04-10T04:57:12.789Z,101460.97
2019-04-10T04:59:41.125Z,101455.41
2019-04-10T05:02:10.075Z,101465.28
2019-04-10T05:04:39.517Z,101464.43
2019-04-10T05:07:08.367Z,101464.84
2019-04-10T05:09:39.110Z,101468.28
2019-04-10T05:12:07.177Z,101471.74
2019-04-10T05:14:35.680Z,101469.58
2019-04-10T05:17:03.978Z,101468.75
2019-04-10T05:19:32.272Z,101467.01
2019-04-10T05:22:01.623Z,101470.47
2019-04-10T05:24:30.081Z,101473.03
2019-04-10T05:26:59.211Z,101479.05
2019-04-10T05:29:30.418Z,101479.89
2019-04-10T05:31:58.650Z,101480.32
2019-04-10T05:34:27.606Z,101481.61
2019-04-10T05:36:56.854Z,101480.30
2019-04-10T05:39:25.217Z,101481.59
2019-04-10T05:41:53.467Z,101475.55
2019-04-10T05:44:21.762Z,101480.27
2019-04-10T05:46:50.040Z,101468.66
2019-04-10T05:49:18.317Z,101471.64
2019-04-10T05:51:46.598Z,101477.65
2019-04-10T05:54:15.022Z,101478.50
2019-04-10T05:56:43.323Z,101469.45
2019-04-10T05:59:12.285Z,101481.02
2019-04-10T06:01:42.784Z,101486.09
2019-04-10T06:04:11.592Z,101482.16
2019-04-10T06:06:40.883Z,101486.02
2019-04-10T06:09:09.835Z,101485.98
2019-04-10T06:11:39.322Z,101481.16
2019-04-10T06:14:08.169Z,101483.77
2019-04-10T06:16:37.105Z,101487.53
2019-04-10T06:19:05.486Z,101484.89
2019-04-10T06:21:33.760Z,101482.17
2019-04-10T06:24:02.037Z,101481.23
2019-04-10T06:26:30.328Z,101480.73
2019-04-10T06:28:58.953Z,101486.66
2019-04-10T06:31:28.449Z,101478.08
2019-04-10T06:33:58.406Z,101482.55
2019-04-10T06:36:27.181Z,101482.55
2019-04-10T06:38:55.483Z,101488.38
2019-04-10T06:41:24.298Z,101483.44
2019-04-10T06:43:53.128Z,101480.30
2019-04-10T06:46:22.241Z,101477.59
2019-04-10T06:48:50.645Z,101485.81
2019-04-10T06:51:21.227Z,101477.53
2019-04-10T06:54:00.188Z,101471.11
2019-04-10T06:56:18.913Z,101476.50
2019-04-10T06:58:47.763Z,101477.84
2019-04-10T07:01:16.669Z,101478.03
2019-04-10T07:03:55.771Z,101470.02
2019-04-10T07:06:19.851Z,101474.67
2019-04-10T07:08:48.833Z,101468.98
2019-04-10T07:11:18.051Z,101461.78
2019-04-10T07:13:45.034Z,101468.98
2019-04-10T07:16:13.314Z,101468.22
2019-04-10T07:18:45.819Z,101468.57
2019-04-10T07:21:12.541Z,101465.83
2019-04-10T07:23:40.845Z,101471.84
2019-04-10T07:26:10.121Z,101466.33
2019-04-10T07:28:41.522Z,101459.55
2019-04-10T07:31:10.081Z,101470.39
2019-04-10T07:33:39.119Z,101481.48
2019-04-10T07:36:09.614Z,101471.06
2019-04-10T07:38:37.395Z,101468.66
2019-04-10T07:41:13.552Z,101460.75
2019-04-10T07:43:36.418Z,101469.84
2019-04-10T07:46:04.694Z,101470.33
2019-04-10T07:48:33.535Z,101464.87
2019-04-10T07:51:02.814Z,101466.86
2019-04-10T07:53:31.108Z,101457.36
2019-04-10T07:56:06.325Z,101471.80
2019-04-10T07:58:29.369Z,101464.80
2019-04-10T08:00:58.662Z,101453.88
2019-04-10T08:03:27.273Z,101446.05
2019-04-10T08:05:55.658Z,101461.68
2019-04-10T08:08:23.936Z,101451.14
2019-04-10T08:10:52.994Z,101458.86
2019-04-10T08:13:21.263Z,101465.34
2019-04-10T08:15:50.059Z,101465.35
2019-04-10T08:18:18.936Z,101464.59
2019-04-10T08:20:47.266Z,101472.34
2019-04-10T08:23:15.527Z,101464.97
2019-04-10T08:25:43.818Z,101464.66
2019-04-10T08:28:12.084Z,101487.97
2019-04-10T08:30:40.379Z,101493.62
2019-04-10T08:33:09.779Z,101493.52
2019-04-10T08:35:38.133Z,101503.89
2019-04-10T08:38:07.577Z,101501.02
2019-04-10T08:40:36.277Z,101507.53
2019-04-10T08:43:04.510Z,101496.88
2019-04-10T08:45:40.580Z,101506.16
2019-04-10T08:48:03.622Z,101510.76
2019-04-10T08:50:32.275Z,101508.50
2019-04-10T08:53:00.559Z,101505.84
2019-04-10T08:55:28.821Z,101516.34
2019-04-10T08:57:57.153Z,101499.69
2019-04-10T09:00:25.392Z,101503.14
2019-04-10T09:02:54.722Z,101510.91
2019-04-10T09:05:23.824Z,101500.29
2019-04-10T09:07:52.709Z,101508.52
2019-04-10T09:10:21.026Z,101512.73
2019-04-10T09:12:49.298Z,101519.49
2019-04-10T09:15:18.154Z,101510.13
2019-04-10T09:17:47.216Z,101507.90
2019-04-10T09:20:16.326Z,101518.80
2019-04-10T09:23:10.800Z,101517.50
2019-04-10T09:25:16.087Z,101511.21
2019-04-10T09:27:44.770Z,101504.23
2019-04-10T09:30:13.053Z,101498.37
2019-04-10T09:32:42.293Z,101495.25
2019-04-10T09:35:10.730Z,101507.43
2019-04-10T09:37:39.892Z,101510.05
2019-04-10T09:40:08.508Z,101506.58
2019-04-10T09:42:37.593Z,101502.59
2019-04-10T09:45:06.179Z,101503.11
2019-04-10T09:47:34.763Z,101499.73
2019-04-10T09:50:03.672Z,101494.70
2019-04-10T09:52:32.113Z,101497.05
2019-04-10T09:55:00.414Z,101505.50
2019-04-10T09:57:28.820Z,101496.21
2019-04-10T09:59:57.048Z,101494.83
2019-04-10T10:02:25.321Z,101490.91
2019-04-10T10:04:53.682Z,101488.95
2019-04-10T10:07:21.994Z,101482.20
2019-04-10T10:09:51.349Z,101488.09
2019-04-10T10:12:20.184Z,101486.02
2019-04-10T10:14:48.458Z,101499.55
2019-04-10T10:17:16.934Z,101490.08
2019-04-10T10:19:46.003Z,101505.33
2019-04-10T10:22:14.726Z,101495.73
2019-04-10T10:24:43.029Z,101490.16
2019-04-10T10:27:11.497Z,101501.33
2019-04-10T10:29:39.838Z,101496.98
2019-04-10T10:32:08.721Z,101501.86
2019-04-10T10:34:37.047Z,101502.23
2019-04-10T10:37:06.337Z,101517.43
2019-04-10T10:39:35.008Z,101506.67
2019-04-10T10:42:03.353Z,101507.73
2019-04-10T10:44:32.239Z,101495.24
2019-04-10T10:47:00.539Z,101482.55
2019-04-10T10:49:28.823Z,101480.54
2019-04-10T10:51:57.311Z,101486.88
2019-04-10T10:54:26.838Z,101491.88
2019-04-10T10:56:55.584Z,101492.86
2019-04-10T10:59:25.099Z,101489.34
2019-04-10T11:01:53.847Z,101484.89
2019-04-10T11:04:23.255Z,101484.84
2019-04-10T11:09:21.536Z,101495.72
2019-04-10T11:11:49.798Z,101491.98
2019-04-10T11:14:19.074Z,101488.41
2019-04-10T11:16:47.417Z,101490.38
2019-04-10T11:19:15.685Z,101495.98
2019-04-10T11:21:45.036Z,101482.45
2019-04-10T11:24:13.732Z,101484.68
2019-04-10T11:26:42.610Z,101477.41
2019-04-10T11:29:11.838Z,101487.23
2019-04-10T11:31:41.476Z,101483.64
2019-04-10T11:34:11.229Z,101479.38
2019-04-10T11:36:40.081Z,101476.46
2019-04-10T11:39:18.634Z,101481.48
2019-04-10T11:41:39.876Z,101464.80
2019-04-10T11:44:09.919Z,101472.38
2019-04-10T11:46:41.487Z,101466.06
2019-04-10T11:49:12.912Z,101466.78
2019-04-10T11:51:38.951Z,101477.42
2019-04-10T11:54:12.122Z,101468.59
2019-04-10T11:56:38.363Z,101472.38
2019-04-10T11:59:09.203Z,101469.31
2019-04-10T12:01:38.625Z,101480.27
2019-04-10T12:04:09.860Z,101472.77
2019-04-10T12:06:38.206Z,101480.55
2019-04-10T12:09:43.279Z,101470.27
2019-04-10T12:11:39.284Z,101466.75
2019-04-10T12:14:07.694Z,101477.59
2019-04-10T12:16:36.887Z,101482.44
2019-04-10T12:19:05.171Z,101476.44
2019-04-10T12:21:33.724Z,101486.20
2019-04-10T12:24:02.167Z,101479.78
2019-04-10T12:26:30.446Z,101487.00
2019-04-10T12:28:58.742Z,101487.45
2019-04-10T12:31:28.094Z,101488.13
2019-04-10T12:33:56.936Z,101483.81
2019-04-10T12:36:25.305Z,101464.64
2019-04-10T12:38:54.099Z,101454.22
2019-04-10T12:41:23.452Z,101458.81
2019-04-10T12:43:51.746Z,101485.65
2019-04-10T12:46:21.032Z,101485.65
2019-04-10T12:48:49.363Z,101475.27
2019-04-10T12:51:17.667Z,101479.51
2019-04-10T12:53:45.939Z,101484.84
2019-04-10T12:56:14.194Z,101479.10
2019-04-10T12:58:42.649Z,101466.70
2019-04-10T13:01:12.112Z,101463.28
2019-04-10T13:03:41.173Z,101469.62
2019-04-10T13:06:09.585Z,101458.78
2019-04-10T13:08:52.527Z,101463.47
2019-04-10T13:11:07.867Z,101462.67
2019-04-10T13:13:36.150Z,101452.11
2019-04-10T13:16:04.546Z,101460.54
2019-04-10T13:18:32.830Z,101455.48
2019-04-10T13:21:02.115Z,101461.30
2019-04-10T13:23:30.899Z,101457.81
2019-04-10T13:26:00.997Z,101470.23
2019-04-10T13:28:29.725Z,101458.66
2019-04-10T13:30:59.274Z,101455.94
2019-04-10T13:33:28.863Z,101464.47
2019-04-10T13:35:57.618Z,101466.21
2019-04-10T13:38:30.181Z,101461.11
2019-04-10T13:40:56.362Z,101474.81
2019-04-10T13:43:25.574Z,101484.36
2019-04-10T13:45:54.229Z,101460.74
2019-04-10T13:48:22.926Z,101478.63
2019-04-10T13:50:51.258Z,101486.20
2019-04-10T13:53:19.701Z,101467.98
2019-04-10T13:55:48.622Z,101464.30
2019-04-10T13:58:17.247Z,101462.22
2019-04-10T14:00:45.516Z,101469.36
2019-04-10T14:03:14.274Z,101478.56
2019-04-10T14:05:43.303Z,101466.41
2019-04-10T14:08:12.593Z,101464.33
2019-04-10T14:10:41.882Z,101476.58
2019-04-10T14:13:10.143Z,101481.13
2019-04-10T14:15:38.393Z,101487.17
2019-04-10T14:18:06.657Z,101496.95
2019-04-10T14:20:35.411Z,101496.24
2019-04-10T14:23:06.356Z,101497.30
2019-04-10T14:25:36.378Z,101511.26
2019-04-10T14:28:04.989Z,101501.20
2019-04-10T14:30:41.113Z,101515.23
2019-04-10T14:33:10.507Z,101519.30
2019-04-10T14:35:39.070Z,101500.53
2019-04-10T14:38:08.490Z,101501.16
2019-04-10T14:40:37.893Z,101508.79
2019-04-10T14:43:07.353Z,101495.63
2019-04-10T14:45:35.918Z,101491.34
2019-04-10T14:48:04.174Z,101493.39
2019-04-10T14:50:33.593Z,101486.33
2019-04-10T14:53:01.885Z,101497.13
2019-04-10T14:55:30.357Z,101499.99
2019-04-10T14:57:59.195Z,101504.84
2019-04-10T15:00:39.077Z,101496.73
2019-04-10T15:03:08.484Z,101482.86
2019-04-10T15:05:46.608Z,101502.41
2019-04-10T15:08:07.181Z,101485.88
2019-04-10T15:10:35.458Z,101494.29
2019-04-10T15:13:10.090Z,101510.48
2019-04-10T15:15:34.514Z,101503.11
2019-04-10T15:18:02.843Z,101495.19
2019-04-10T15:20:31.389Z,101489.97
2019-04-10T15:23:00.768Z,101498.24
2019-04-10T15:25:29.118Z,101503.61
2019-04-10T15:27:57.915Z,101509.38
2019-04-10T15:30:26.505Z,101516.61
2019-04-10T15:32:54.778Z,101506.38
2019-04-10T15:35:23.039Z,101504.73
2019-04-10T15:37:51.449Z,101497.55
2019-04-10T15:40:24.384Z,101503.07
2019-04-10T15:42:49.795Z,101513.74
2019-04-10T15:45:18.393Z,101507.42
2019-04-10T15:47:52.554Z,101509.19
2019-04-10T15:50:17.978Z,101501.84
2019-04-10T15:52:47.287Z,101510.72
2019-04-10T15:55:15.630Z,101510.91
2019-04-10T15:57:50.455Z,101512.64
2019-04-10T16:00:14.351Z,101517.05
2019-04-10T16:02:42.651Z,101511.13
2019-04-10T16:05:10.866Z,101513.67
2019-04-10T16:07:39.430Z,101514.97
2019-04-10T16:10:09.295Z,101529.45
2019-04-10T16:12:37.562Z,101527.56
2019-04-10T16:15:06.456Z,101536.62
2019-04-10T16:17:39.902Z,101529.97
2019-04-10T16:20:19.571Z,101526.16
2019-04-10T16:22:53.084Z,101531.05
2019-04-10T16:25:22.934Z,101542.00
2019-04-10T16:27:51.202Z,101534.69
2019-04-10T16:30:22.104Z,101546.84
2019-04-10T16:32:50.371Z,101545.29
2019-04-10T16:35:19.063Z,101543.55
2019-04-10T16:37:47.533Z,101545.86
2019-04-10T16:40:15.744Z,101552.94
2019-04-10T16:42:44.023Z,101561.80
2019-04-10T16:45:13.588Z,101565.01
2019-04-10T16:47:42.030Z,101563.50
2019-04-10T16:50:11.197Z,101568.55
2019-04-10T16:52:39.542Z,101571.33
2019-04-10T16:55:08.415Z,101575.97
2019-04-10T16:57:36.742Z,101573.89
2019-04-10T17:00:06.913Z,101576.34
2019-04-10T17:02:36.024Z,101576.61
2019-04-10T17:05:06.796Z,101579.73
2019-04-10T17:07:36.046Z,101586.23
2019-04-10T17:10:15.964Z,101585.30
2019-04-10T17:12:38.008Z,101593.39
2019-04-10T17:15:10.152Z,101589.16
2019-04-10T17:17:38.917Z,101590.02
2019-04-10T17:20:08.710Z,101592.09
2019-04-10T17:22:43.563Z,101596.48
2019-04-10T17:25:07.638Z,101600.63
2019-04-10T17:27:35.925Z,101611.59
2019-04-10T17:30:07.341Z,101620.66
2019-04-10T17:32:36.328Z,101625.12
2019-04-10T17:35:07.529Z,101627.52
2019-04-10T17:37:36.576Z,101634.05
2019-04-10T17:40:23.157Z,101641.03
2019-04-10T17:42:40.998Z,101635.80
2019-04-10T17:45:10.030Z,101636.27
2019-04-10T17:47:38.884Z,101644.77
2019-04-10T17:50:09.124Z,101651.61
2019-04-10T17:52:38.108Z,101655.98
2019-04-10T17:55:07.726Z,101661.45
2019-04-10T17:57:40.415Z,101669.20
2019-04-10T18:00:22.927Z,101667.02
2019-04-10T18:02:51.307Z,101672.67
2019-04-10T18:05:20.376Z,101677.21
2019-04-10T18:07:48.737Z,101676.84
2019-04-10T18:10:17.163Z,101676.95
2019-04-10T18:12:46.102Z,101688.92
2019-04-10T18:15:15.643Z,101686.84
2019-04-10T18:17:44.040Z,101697.13
2019-04-10T18:20:12.357Z,101696.64
2019-04-10T18:22:40.754Z,101700.90
2019-04-10T18:25:09.705Z,101705.30
2019-04-10T18:27:38.659Z,101712.36
2019-04-10T18:30:07.869Z,101718.22
2019-04-10T18:32:36.244Z,101716.51
2019-04-10T18:35:06.776Z,101725.19
2019-04-10T18:37:35.394Z,101723.41
2019-04-10T18:40:05.293Z,101729.61
2019-04-10T18:42:33.626Z,101735.05
2019-04-10T18:45:01.989Z,101735.06
2019-04-10T18:47:32.346Z,101729.38
2019-04-10T18:50:01.148Z,101744.50
2019-04-10T18:52:30.257Z,101742.31
2019-04-10T18:54:58.570Z,101748.00
2019-04-10T18:57:26.783Z,101747.89
2019-04-10T19:00:12.877Z,101748.86
2019-04-10T19:02:43.174Z,101745.92
2019-04-10T19:05:24.839Z,101747.20
2019-04-10T19:07:53.145Z,101753.23
2019-04-10T19:10:22.135Z,101759.24
2019-04-10T19:12:50.768Z,101763.64
2019-04-10T19:15:20.293Z,101763.30
2019-04-10T19:17:48.855Z,101769.45
2019-04-10T19:20:17.975Z,101759.84
2019-04-10T19:22:46.406Z,101766.83
2019-04-10T19:25:14.735Z,101768.23
2019-04-10T19:27:43.041Z,101770.78
2019-04-10T19:30:15.807Z,101770.36
2019-04-10T19:32:44.108Z,101778.63
2019-04-10T19:35:12.978Z,101776.45
2019-04-10T19:37:41.199Z,101778.66
2019-04-10T19:40:11.062Z,101781.72
2019-04-10T19:42:39.775Z,101777.96
2019-04-10T19:45:08.179Z,101792.67
2019-04-10T19:47:36.777Z,101788.28
2019-04-10T19:50:05.506Z,101787.61
2019-04-10T19:52:33.778Z,101795.03
2019-04-10T19:55:03.168Z,101797.22
2019-04-10T19:57:31.629Z,101792.99
2019-04-10T20:00:00.034Z,101786.97
2019-04-10T20:02:28.389Z,101783.16
2019-04-10T20:04:57.005Z,101788.80
2019-04-10T20:07:25.297Z,101784.93
2019-04-10T20:09:53.558Z,101790.64
2019-04-10T20:12:21.839Z,101785.47
2019-04-10T20:14:50.097Z,101787.16
2019-04-10T20:17:18.382Z,101787.20
2019-04-10T20:19:46.787Z,101791.50
2019-04-10T20:22:15.095Z,101791.05
2019-04-10T20:24:43.365Z,101795.36
2019-04-10T20:27:11.979Z,101798.14
2019-04-10T20:29:41.912Z,101802.91
2019-04-10T20:32:11.509Z,101803.73
2019-04-10T20:34:40.189Z,101807.61
2019-04-10T20:37:11.093Z,101803.33
2019-04-10T20:39:39.222Z,101806.74
2019-04-10T20:42:07.777Z,101807.64
2019-04-10T20:44:36.586Z,101807.19
2019-04-10T20:47:04.897Z,101812.80
2019-04-10T20:49:34.260Z,101811.98
2019-04-10T20:52:02.464Z,101813.71
2019-04-10T20:54:30.910Z,101811.95
2019-04-10T20:56:59.287Z,101812.36
2019-04-10T20:59:28.606Z,101811.09
2019-04-10T21:01:57.803Z,101812.39
2019-04-10T21:04:26.099Z,101816.27
2019-04-10T21:06:54.457Z,101821.88
2019-04-10T21:09:23.624Z,101826.60
2019-04-10T21:12:01.964Z,101835.64
2019-04-10T21:14:23.342Z,101833.03
2019-04-10T21:16:51.946Z,101833.94
2019-04-10T21:19:20.668Z,101836.09
2019-04-10T21:21:49.073Z,101847.41
2019-04-10T21:24:17.281Z,101850.37
2019-04-10T21:26:46.450Z,101848.25
2019-04-10T21:29:18.991Z,101852.56
2019-04-10T21:31:52.566Z,101851.29
2019-04-10T21:34:28.538Z,101849.05
2019-04-10T21:36:57.595Z,101849.02
2019-04-10T21:39:25.910Z,101855.47
2019-04-10T21:41:54.188Z,101851.58
2019-04-10T21:44:22.460Z,101852.89
2019-04-10T21:46:50.746Z,101856.38
2019-04-10T21:49:19.825Z,101857.32
2019-04-10T21:51:48.154Z,101863.72
2019-04-10T21:54:16.453Z,101865.84
2019-04-10T21:56:45.092Z,101867.69
2019-04-10T21:59:16.019Z,101867.30
2019-04-10T22:01:43.417Z,101863.03
2019-04-10T22:04:11.777Z,101867.80
2019-04-10T22:06:41.677Z,101868.24
2019-04-10T22:09:12.674Z,101866.06
2019-04-10T22:11:49.627Z,101858.69
2019-04-10T22:14:19.142Z,101861.75
2019-04-10T22:16:48.419Z,101861.77
2019-04-10T22:19:17.189Z,101861.78
2019-04-10T22:21:46.218Z,101865.98
2019-04-10T22:24:15.672Z,101865.08
2019-04-10T22:26:44.542Z,101867.16
2019-04-10T22:29:14.073Z,101874.02
2019-04-10T22:31:43.693Z,101874.84
2019-04-10T22:34:12.255Z,101872.27
2019-04-10T22:36:41.471Z,101867.56
2019-04-10T22:39:11.397Z,101868.88
2019-04-10T22:41:40.695Z,101868.38
2019-04-10T22:44:09.748Z,101876.06
2019-04-10T22:46:38.402Z,101869.56
2019-04-10T22:49:06.726Z,101866.98
2019-04-10T22:51:35.592Z,101866.98
2019-04-10T22:54:04.122Z,101879.88
2019-04-10T22:56:33.654Z,101880.74
2019-04-10T22:59:01.934Z,101881.59
2019-04-10T23:01:31.246Z,101879.46
2019-04-10T23:03:59.550Z,101890.69
2019-04-10T23:06:27.825Z,101891.97
2019-04-10T23:08:56.089Z,101885.09
2019-04-10T23:11:34.823Z,101881.66
2019-04-10T23:13:54.438Z,101880.77
2019-04-10T23:16:22.690Z,101881.61
2019-04-10T23:18:51.823Z,101880.28
2019-04-10T23:21:20.759Z,101882.92
2019-04-10T23:23:50.030Z,101881.16
2019-04-10T23:26:18.339Z,101877.69
2019-04-10T23:28:47.471Z,101879.78
2019-04-10T23:31:15.778Z,101881.06
2019-04-10T23:33:44.077Z,101873.31
2019-04-10T23:36:12.295Z,101864.26
2019-04-10T23:38:41.690Z,101869.84
2019-04-10T23:41:10.006Z,101865.09
2019-04-10T23:43:38.268Z,101863.77
2019-04-10T23:46:06.532Z,101868.48
2019-04-10T23:48:35.026Z,101868.91
2019-04-10T23:51:03.246Z,101871.98
2019-04-10T23:53:31.490Z,101879.73
2019-04-10T23:55:59.773Z,101879.73
2019-04-10T23:58:28.055Z,101872.40
